Time;durP1;ratioP1;P1;durP2;ratioP2;P2;SDS_P1;SDS_P2;PMS_P1;PMS_P2;Temp;Humidity;BMP_temperature;BMP_pressure;BME280_temperature;BME280_humidity;BME280_pressure;Samples;Min_cycle;Max_cycle;Signal;HPM_P1;HPM_P2
2024/01/30 00:01:04;;;;;;;109.17;44.97;;;13.20;95.00;;;;;;4593475;19;20318;-79
2024/01/30 00:02:56;;;;;;;88.60;37.63;;;13.20;95.00;;;;;;4593526;19;20013;-80
2024/01/30 00:04:31;;;;;;;61.93;30.47;;;13.10;95.00;;;;;;4594370;19;19998;-80
2024/01/30 00:06:07;;;;;;;52.30;29.07;;;13.10;95.00;;;;;;4593089;19;20014;-80
2024/01/30 00:07:41;;;;;;;49.57;27.17;;;13.10;94.90;;;;;;4594725;19;20003;-79
2024/01/30 00:09:15;;;;;;;46.33;26.00;;;13.20;95.00;;;;;;4594628;19;20002;-80
2024/01/30 00:10:50;;;;;;;48.07;24.57;;;13.10;95.00;;;;;;4594355;19;20015;-79
2024/01/30 00:12:24;;;;;;;47.27;25.67;;;13.10;94.90;;;;;;4594391;19;20085;-79
2024/01/30 00:13:59;;;;;;;45.83;23.93;;;13.10;95.00;;;;;;4594603;19;20036;-80
2024/01/30 00:15:35;;;;;;;40.03;23.93;;;13.10;95.00;;;;;;4593981;19;20017;-80
2024/01/30 00:17:09;;;;;;;46.90;24.30;;;13.10;95.00;;;;;;4594514;19;20034;-80
2024/01/30 00:18:43;;;;;;;55.23;26.73;;;13.10;95.00;;;;;;4593108;19;20033;-80
2024/01/30 00:20:18;;;;;;;45.00;25.30;;;13.10;95.00;;;;;;4593929;19;20015;-80
2024/01/30 00:21:52;;;;;;;49.93;25.80;;;13.10;95.00;;;;;;4594380;19;20003;-80
2024/01/30 00:23:26;;;;;;;51.43;26.90;;;13.10;94.90;;;;;;4594068;19;20011;-79
2024/01/30 00:25:01;;;;;;;45.73;25.17;;;13.10;94.80;;;;;;4594870;19;20101;-79
2024/01/30 00:26:35;;;;;;;50.23;27.43;;;13.10;94.80;;;;;;4592025;19;20028;-79
2024/01/30 00:28:09;;;;;;;50.17;27.90;;;13.10;94.90;;;;;;4593900;19;20061;-79
2024/01/30 00:29:44;;;;;;;44.53;27.53;;;13.10;94.80;;;;;;4594697;19;20271;-80
2024/01/30 00:31:19;;;;;;;36.83;23.67;;;13.10;94.80;;;;;;4594009;19;20024;-79
2024/01/30 00:32:54;;;;;;;44.17;24.97;;;13.10;94.80;;;;;;4594093;19;20009;-79
2024/01/30 00:34:30;;;;;;;49.00;27.33;;;13.10;94.70;;;;;;4593956;19;20018;-79
2024/01/30 00:36:04;;;;;;;45.07;25.83;;;13.10;94.70;;;;;;4593236;19;20006;-79
2024/01/30 00:37:40;;;;;;;44.93;24.10;;;13.10;94.60;;;;;;4592470;19;20028;-80
2024/01/30 00:39:15;;;;;;;40.03;24.37;;;13.10;94.60;;;;;;4592894;19;20006;-79
2024/01/30 00:40:50;;;;;;;33.53;21.17;;;13.10;94.60;;;;;;4592728;19;20488;-80
2024/01/30 00:42:24;;;;;;;30.93;19.90;;;13.10;94.60;;;;;;4592597;19;20003;-79
2024/01/30 00:44:00;;;;;;;34.23;21.37;;;13.10;94.70;;;;;;4593672;19;20438;-79
2024/01/30 00:45:35;;;;;;;28.27;19.50;;;13.00;94.80;;;;;;4593396;19;20410;-79
2024/01/30 00:47:11;;;;;;;33.73;21.13;;;13.10;94.70;;;;;;4592452;19;20006;-79
2024/01/30 00:48:46;;;;;;;30.83;20.33;;;13.10;94.70;;;;;;4593900;19;20011;-79
2024/01/30 00:50:20;;;;;;;33.73;20.93;;;13.10;94.70;;;;;;4593569;19;20021;-79
2024/01/30 00:51:55;;;;;;;34.13;20.63;;;13.10;94.60;;;;;;4593172;19;20006;-79
2024/01/30 00:53:30;;;;;;;33.10;20.60;;;13.00;94.70;;;;;;4592519;19;20012;-79
2024/01/30 00:55:05;;;;;;;31.50;19.67;;;13.00;94.70;;;;;;4592508;19;20005;-79
2024/01/30 00:56:39;;;;;;;32.53;19.97;;;13.10;94.80;;;;;;4591210;19;20003;-79
2024/01/30 00:58:15;;;;;;;31.87;20.33;;;13.10;94.80;;;;;;4592265;19;20421;-79
2024/01/30 00:59:48;;;;;;;30.33;20.50;;;13.10;94.60;;;;;;4592301;19;20038;-80
2024/01/30 01:14:56;;;;;;;30.60;20.33;;;13.20;94.00;;;;;;4562476;19;19926;-81
2024/01/30 01:16:31;;;;;;;27.17;18.13;;;13.20;94.00;;;;;;4592978;19;20085;-81
2024/01/30 01:18:05;;;;;;;29.73;20.43;;;13.20;93.90;;;;;;4593312;19;20024;-81
2024/01/30 01:19:39;;;;;;;31.40;21.60;;;13.20;93.80;;;;;;4591667;19;20003;-81
2024/01/30 01:21:14;;;;;;;29.30;20.60;;;13.10;93.80;;;;;;4593009;19;20290;-81
2024/01/30 01:22:48;;;;;;;30.23;21.37;;;13.10;93.70;;;;;;4591821;19;20042;-81
2024/01/30 01:24:23;;;;;;;27.67;20.27;;;13.20;93.70;;;;;;4591628;19;20082;-81
2024/01/30 01:26:00;;;;;;;29.37;19.67;;;13.10;93.70;;;;;;4591406;19;20078;-81
2024/01/30 01:27:38;;;;;;;33.00;21.27;;;13.10;93.70;;;;;;4591581;19;20013;-81
2024/01/30 01:29:12;;;;;;;28.17;19.50;;;13.10;93.60;;;;;;4592886;19;20007;-81
2024/01/30 01:30:48;;;;;;;26.13;19.53;;;13.10;93.60;;;;;;4591396;19;20028;-81
2024/01/30 01:32:22;;;;;;;27.23;19.97;;;13.10;93.70;;;;;;4591405;19;20002;-81
2024/01/30 01:33:56;;;;;;;26.07;20.57;;;13.10;93.70;;;;;;4592515;19;20010;-80
2024/01/30 01:35:31;;;;;;;27.30;18.17;;;13.10;93.70;;;;;;4591760;19;20291;-81
2024/01/30 01:37:06;;;;;;;26.07;17.93;;;13.10;93.70;;;;;;4591644;19;20316;-81
2024/01/30 01:38:39;;;;;;;22.80;16.33;;;13.10;93.80;;;;;;4592584;19;20007;-82
2024/01/30 01:40:14;;;;;;;26.37;17.57;;;13.10;93.80;;;;;;4592835;19;20025;-82
2024/01/30 01:41:49;;;;;;;24.63;16.30;;;13.10;94.00;;;;;;4592808;19;20007;-82
2024/01/30 01:43:23;;;;;;;25.63;16.47;;;13.10;94.10;;;;;;4591424;19;20014;-82
2024/01/30 01:44:58;;;;;;;28.03;17.87;;;13.10;94.00;;;;;;4590731;19;20459;-82
2024/01/30 01:46:33;;;;;;;25.60;16.60;;;13.10;94.00;;;;;;4591844;19;20010;-81
2024/01/30 01:48:08;;;;;;;22.87;16.20;;;13.00;94.00;;;;;;4591388;19;20018;-81
2024/01/30 01:49:43;;;;;;;24.43;16.60;;;13.10;94.10;;;;;;4592107;19;20010;-81
2024/01/30 01:51:17;;;;;;;24.47;16.13;;;13.00;94.10;;;;;;4592615;19;20415;-82
2024/01/30 01:52:51;;;;;;;25.10;17.73;;;13.00;94.10;;;;;;4592372;19;20003;-82
2024/01/30 01:54:27;;;;;;;23.80;16.23;;;13.10;94.10;;;;;;4592112;19;20021;-81
2024/01/30 01:56:01;;;;;;;26.63;17.50;;;13.00;94.10;;;;;;4590987;19;20337;-82
2024/01/30 01:57:35;;;;;;;24.13;16.80;;;13.00;94.10;;;;;;4591922;19;19998;-81
2024/01/30 01:59:10;;;;;;;27.47;16.67;;;13.00;94.10;;;;;;4590960;19;20025;-83
2024/01/30 02:00:44;;;;;;;24.87;16.03;;;13.00;94.10;;;;;;4590911;19;20010;-81
2024/01/30 02:02:19;;;;;;;23.47;15.77;;;13.00;94.10;;;;;;4591014;19;19998;-81
2024/01/30 02:03:54;;;;;;;25.77;16.17;;;13.00;94.10;;;;;;4591903;19;20022;-81
2024/01/30 02:05:28;;;;;;;23.37;15.73;;;13.00;94.00;;;;;;4591362;19;20007;-82
2024/01/30 02:07:02;;;;;;;22.90;15.97;;;13.00;94.00;;;;;;4591224;19;20450;-82
2024/01/30 02:08:38;;;;;;;22.80;15.57;;;13.00;94.00;;;;;;4591437;19;20292;-81
2024/01/30 02:10:12;;;;;;;23.43;16.40;;;13.00;94.00;;;;;;4591966;19;20002;-81
2024/01/30 02:11:47;;;;;;;27.47;16.87;;;13.00;94.00;;;;;;4590962;19;20002;-82
2024/01/30 02:13:23;;;;;;;23.37;17.00;;;13.00;94.00;;;;;;4590739;19;20007;-81
2024/01/30 02:14:58;;;;;;;24.37;16.63;;;13.00;94.00;;;;;;4593693;19;20017;-81
2024/01/30 02:16:33;;;;;;;24.77;16.77;;;13.00;94.00;;;;;;4595516;19;20007;-82
2024/01/30 02:18:08;;;;;;;24.90;16.73;;;13.00;93.90;;;;;;4595408;19;20006;-81
2024/01/30 02:19:43;;;;;;;25.67;17.67;;;13.00;93.90;;;;;;4596569;19;19999;-81
2024/01/30 02:21:17;;;;;;;21.97;16.83;;;13.00;94.00;;;;;;4595261;19;20006;-81
2024/01/30 02:22:53;;;;;;;23.03;16.53;;;13.00;93.90;;;;;;4596654;19;20309;-82
2024/01/30 02:24:27;;;;;;;25.83;16.73;;;13.00;93.90;;;;;;4595070;19;20012;-81
2024/01/30 02:26:02;;;;;;;22.77;15.63;;;13.00;94.00;;;;;;4595324;19;20418;-82
2024/01/30 02:27:37;;;;;;;22.20;15.93;;;13.00;93.90;;;;;;4595187;19;20014;-81
2024/01/30 02:29:12;;;;;;;22.90;16.07;;;13.00;93.80;;;;;;4596433;19;20001;-81
2024/01/30 02:30:47;;;;;;;21.97;15.10;;;12.90;93.80;;;;;;4596454;19;19998;-82
2024/01/30 02:32:22;;;;;;;23.83;15.60;;;12.90;93.80;;;;;;4596793;19;20007;-82
2024/01/30 02:33:57;;;;;;;22.03;15.77;;;12.90;93.80;;;;;;4596419;19;20013;-81
2024/01/30 02:35:31;;;;;;;24.00;16.63;;;12.90;93.70;;;;;;4594717;19;20488;-82
2024/01/30 02:37:06;;;;;;;24.03;17.00;;;12.90;93.70;;;;;;4594924;19;20002;-81
2024/01/30 02:38:39;;;;;;;26.20;18.63;;;12.90;93.70;;;;;;4595971;19;20007;-81
2024/01/30 02:40:13;;;;;;;27.23;19.57;;;12.90;93.70;;;;;;4594884;19;20002;-82
2024/01/30 02:41:48;;;;;;;28.33;19.60;;;12.90;93.70;;;;;;4595176;19;20020;-81
2024/01/30 02:43:22;;;;;;;41.70;29.33;;;12.90;93.60;;;;;;4595804;19;20440;-82
2024/01/30 02:44:58;;;;;;;41.77;29.27;;;12.90;93.60;;;;;;4595226;19;20070;-82
2024/01/30 02:46:33;;;;;;;38.20;27.27;;;12.90;93.60;;;;;;4595730;19;20006;-81
2024/01/30 02:48:08;;;;;;;37.20;24.13;;;12.90;93.60;;;;;;4594755;19;20059;-82
2024/01/30 02:49:43;;;;;;;42.73;29.27;;;12.90;93.60;;;;;;4595929;19;20428;-82
2024/01/30 02:51:18;;;;;;;48.20;32.03;;;12.90;93.50;;;;;;4596274;19;20010;-81
2024/01/30 02:52:52;;;;;;;43.63;30.90;;;12.90;93.60;;;;;;4594867;19;20005;-82
2024/01/30 02:54:27;;;;;;;41.73;31.70;;;12.90;93.50;;;;;;4595435;19;20385;-82
2024/01/30 02:56:03;;;;;;;39.70;29.40;;;12.90;93.50;;;;;;4595941;19;21009;-81
2024/01/30 02:57:37;;;;;;;34.10;25.20;;;12.90;93.60;;;;;;4594500;19;20314;-81
2024/01/30 02:59:13;;;;;;;31.90;23.77;;;12.90;93.60;;;;;;4595509;19;19998;-82
2024/01/30 03:00:49;;;;;;;31.83;24.70;;;12.90;93.70;;;;;;4596228;19;20028;-81
2024/01/30 03:02:22;;;;;;;29.87;24.77;;;12.90;93.70;;;;;;4594692;19;20021;-81
2024/01/30 03:03:56;;;;;;;28.50;22.00;;;12.90;93.70;;;;;;4595733;19;20006;-81
2024/01/30 03:05:31;;;;;;;26.23;20.27;;;12.90;93.70;;;;;;4592870;19;20065;-82
2024/01/30 03:07:05;;;;;;;24.73;19.17;;;12.90;93.70;;;;;;4594190;19;20014;-82
2024/01/30 03:08:40;;;;;;;24.63;17.40;;;12.90;94.00;;;;;;4595989;19;20019;-81
2024/01/30 03:10:16;;;;;;;25.40;17.40;;;12.90;93.80;;;;;;4594731;19;20013;-81
2024/01/30 03:11:50;;;;;;;24.03;18.00;;;12.90;93.70;;;;;;4595564;19;20006;-82
2024/01/30 03:13:25;;;;;;;26.10;18.73;;;12.90;93.70;;;;;;4594327;19;20025;-82
2024/01/30 03:15:00;;;;;;;26.87;16.80;;;12.90;93.70;;;;;;4594257;19;20018;-82
2024/01/30 03:16:34;;;;;;;32.23;22.90;;;12.90;93.70;;;;;;4594158;19;20011;-82
2024/01/30 03:18:08;;;;;;;72.57;40.80;;;12.90;93.70;;;;;;4595099;19;20429;-82
2024/01/30 03:19:44;;;;;;;69.93;39.97;;;12.90;93.60;;;;;;4595544;19;20082;-82
2024/01/30 03:21:19;;;;;;;60.37;39.10;;;12.90;93.60;;;;;;4595402;19;19998;-82
2024/01/30 03:22:54;;;;;;;65.10;45.90;;;12.90;93.60;;;;;;4595437;19;20009;-82
2024/01/30 03:24:29;;;;;;;47.37;36.97;;;12.90;93.60;;;;;;4593691;19;20048;-82
2024/01/30 03:26:06;;;;;;;48.40;37.43;;;12.90;93.60;;;;;;4591167;19;20318;-82
2024/01/30 03:27:40;;;;;;;54.70;40.70;;;12.90;93.60;;;;;;4594261;19;20030;-81
2024/01/30 03:29:15;;;;;;;48.73;38.77;;;12.90;93.60;;;;;;4595744;19;19998;-82
2024/01/30 03:30:49;;;;;;;42.00;35.33;;;12.90;93.60;;;;;;4593798;19;20006;-82
2024/01/30 03:32:23;;;;;;;56.40;43.13;;;12.90;93.60;;;;;;4593868;19;20298;-81
2024/01/30 03:33:59;;;;;;;62.17;47.20;;;12.90;93.60;;;;;;4595252;19;20292;-81
2024/01/30 03:35:33;;;;;;;56.97;45.47;;;12.90;93.60;;;;;;4593793;19;20006;-82
2024/01/30 03:37:07;;;;;;;53.57;41.23;;;12.90;93.60;;;;;;4594009;19;20009;-82
2024/01/30 03:38:42;;;;;;;45.47;36.93;;;12.90;93.60;;;;;;4595056;19;20069;-82
2024/01/30 03:40:17;;;;;;;42.63;34.57;;;12.90;93.60;;;;;;4593903;19;20298;-82
2024/01/30 03:41:51;;;;;;;38.27;29.93;;;12.90;93.60;;;;;;4593926;19;20355;-82
2024/01/30 03:43:27;;;;;;;29.43;22.97;;;12.90;93.60;;;;;;4593872;19;20002;-82
2024/01/30 03:45:01;;;;;;;29.63;22.60;;;12.90;93.70;;;;;;4593712;19;20441;-82
2024/01/30 03:46:35;;;;;;;24.50;19.47;;;12.90;93.60;;;;;;4594341;19;19999;-82
2024/01/30 03:48:11;;;;;;;26.90;20.53;;;12.90;93.70;;;;;;4594991;19;20011;-82
2024/01/30 03:49:45;;;;;;;25.73;19.97;;;12.90;93.60;;;;;;4594870;19;20058;-82
2024/01/30 03:51:18;;;;;;;23.80;18.53;;;12.90;93.60;;;;;;4594798;19;20002;-82
2024/01/30 03:52:54;;;;;;;24.83;18.13;;;12.90;93.60;;;;;;4594760;19;20019;-82
2024/01/30 03:54:28;;;;;;;23.80;16.63;;;12.90;93.60;;;;;;4593112;19;20009;-82
2024/01/30 03:56:03;;;;;;;25.17;17.83;;;12.80;93.60;;;;;;4594606;19;20424;-82
2024/01/30 03:57:38;;;;;;;24.07;16.60;;;12.90;93.50;;;;;;4593451;19;20018;-82
2024/01/30 03:59:11;;;;;;;24.60;17.03;;;12.90;93.50;;;;;;4594572;19;20401;-82
2024/01/30 04:00:45;;;;;;;23.80;17.30;;;12.90;93.50;;;;;;4593319;19;20009;-82
2024/01/30 04:02:22;;;;;;;23.37;16.60;;;12.80;93.40;;;;;;4594447;19;20013;-82
2024/01/30 04:03:58;;;;;;;22.93;16.30;;;12.80;93.40;;;;;;4594896;19;20443;-84
2024/01/30 04:05:31;;;;;;;24.63;17.30;;;12.80;93.40;;;;;;4593517;19;20479;-84
2024/01/30 04:07:08;;;;;;;27.93;17.80;;;12.80;93.40;;;;;;4593664;19;20024;-84
2024/01/30 04:08:42;;;;;;;21.03;15.33;;;12.80;93.30;;;;;;4594726;19;20013;-84
2024/01/30 04:10:16;;;;;;;23.90;16.87;;;12.80;93.30;;;;;;4594652;19;19995;-85
2024/01/30 04:11:52;;;;;;;22.43;16.23;;;12.80;93.30;;;;;;4594561;19;20006;-84
2024/01/30 04:13:25;;;;;;;20.93;16.17;;;12.80;93.40;;;;;;4593347;19;20037;-84
2024/01/30 04:14:59;;;;;;;26.07;16.57;;;12.80;93.40;;;;;;4592978;19;20014;-84
2024/01/30 04:16:36;;;;;;;21.40;16.20;;;12.80;93.40;;;;;;4593196;19;20302;-84
2024/01/30 04:18:09;;;;;;;22.53;16.20;;;12.80;93.40;;;;;;4594221;19;20315;-85
2024/01/30 04:19:43;;;;;;;21.50;16.10;;;12.80;93.40;;;;;;4594609;19;19999;-82
2024/01/30 04:21:22;;;;;;;20.83;15.83;;;12.80;93.40;;;;;;4594427;19;20006;-81
2024/01/30 04:22:56;;;;;;;20.20;15.97;;;12.80;93.40;;;;;;4594799;19;20006;-82
2024/01/30 04:24:30;;;;;;;23.13;16.63;;;12.80;93.40;;;;;;4594545;19;20091;-81
2024/01/30 04:26:09;;;;;;;21.40;15.70;;;12.80;93.40;;;;;;4594457;19;20077;-81
2024/01/30 04:27:42;;;;;;;23.77;16.17;;;12.80;93.40;;;;;;4594541;19;19998;-81
2024/01/30 04:29:17;;;;;;;22.20;15.93;;;12.80;93.40;;;;;;4594884;19;20006;-81
2024/01/30 04:30:52;;;;;;;22.03;15.33;;;12.80;93.50;;;;;;4595156;19;20019;-81
2024/01/30 04:32:27;;;;;;;22.87;15.00;;;12.80;93.50;;;;;;4594995;19;19998;-82
2024/01/30 04:34:02;;;;;;;22.03;15.67;;;12.80;93.50;;;;;;4593901;19;19999;-82
2024/01/30 04:35:38;;;;;;;20.70;14.27;;;12.80;93.50;;;;;;4592661;19;20013;-82
2024/01/30 04:37:11;;;;;;;20.93;15.20;;;12.80;93.50;;;;;;4592870;19;20405;-82
2024/01/30 04:38:46;;;;;;;19.43;14.10;;;12.80;93.50;;;;;;4592526;19;20019;-82
2024/01/30 04:40:22;;;;;;;23.23;15.20;;;12.80;93.60;;;;;;4593855;19;20002;-82
2024/01/30 04:41:56;;;;;;;20.07;14.67;;;12.80;93.60;;;;;;4593824;19;20291;-82
2024/01/30 04:43:30;;;;;;;21.37;15.03;;;12.80;93.60;;;;;;4592688;19;20411;-81
2024/01/30 04:45:07;;;;;;;23.97;15.40;;;12.80;93.60;;;;;;4592875;19;20010;-82
2024/01/30 04:46:41;;;;;;;23.50;15.07;;;12.80;93.70;;;;;;4593358;19;20444;-83
2024/01/30 04:48:15;;;;;;;20.93;13.03;;;12.80;93.80;;;;;;4592506;19;20018;-86
2024/01/30 04:49:52;;;;;;;20.50;14.30;;;12.90;93.90;;;;;;4593254;19;20309;-82
2024/01/30 04:51:26;;;;;;;20.80;14.43;;;13.00;93.90;;;;;;4593991;19;20870;-81
2024/01/30 04:53:00;;;;;;;20.07;13.40;;;13.20;93.80;;;;;;4593849;19;20444;-81
2024/01/30 04:54:36;;;;;;;22.63;14.40;;;13.30;93.60;;;;;;4593177;19;20010;-81
2024/01/30 04:56:11;;;;;;;20.63;13.67;;;13.40;93.40;;;;;;4593707;19;20002;-81
2024/01/30 04:57:45;;;;;;;19.97;13.57;;;13.50;93.20;;;;;;4593519;19;20002;-81
2024/01/30 04:59:20;;;;;;;17.90;13.63;;;13.60;93.00;;;;;;4592466;19;20005;-81
2024/01/30 05:00:54;;;;;;;18.17;13.93;;;13.70;93.10;;;;;;4593124;19;19998;-81
2024/01/30 05:02:28;;;;;;;19.33;13.73;;;13.80;92.70;;;;;;4592352;19;20021;-81
2024/01/30 05:04:05;;;;;;;22.50;14.47;;;13.90;92.50;;;;;;4592789;19;20023;-81
2024/01/30 05:05:39;;;;;;;20.17;14.47;;;14.00;92.50;;;;;;4590650;19;20340;-81
2024/01/30 05:07:13;;;;;;;21.77;14.13;;;14.00;92.40;;;;;;4592363;19;20061;-86
2024/01/30 05:08:49;;;;;;;21.03;15.10;;;14.10;92.30;;;;;;4593232;19;20014;-83
2024/01/30 05:10:23;;;;;;;16.77;12.97;;;14.10;92.40;;;;;;4593246;19;20012;-82
2024/01/30 05:11:58;;;;;;;22.27;15.87;;;14.10;92.20;;;;;;4593452;19;20006;-84
2024/01/30 05:13:33;;;;;;;78.87;59.03;;;14.20;92.20;;;;;;4591752;19;20006;-85
2024/01/30 05:15:08;;;;;;;113.23;86.27;;;14.20;92.30;;;;;;4591647;19;20033;-84
2024/01/30 05:16:46;;;;;;;82.17;62.77;;;14.20;92.20;;;;;;4592005;19;20002;-84
2024/01/30 05:18:24;;;;;;;77.83;60.53;;;14.30;92.20;;;;;;4591956;19;20020;-84
2024/01/30 05:19:58;;;;;;;44.20;33.77;;;14.30;92.10;;;;;;4592911;19;19994;-84
2024/01/30 05:21:33;;;;;;;42.90;32.97;;;14.30;93.20;;;;;;4593449;19;20325;-89
2024/01/30 05:23:09;;;;;;;37.37;30.20;;;14.30;92.20;;;;;;4592396;19;20020;-90
2024/01/30 05:24:49;;;;;;;49.53;40.17;;;14.20;92.20;;;;;;4593594;19;20025;-88
2024/01/30 05:26:23;;;;;;;50.97;38.43;;;14.20;92.20;;;;;;4595180;19;20082;-83
2024/01/30 05:27:59;;;;;;;38.43;30.70;;;14.10;92.10;;;;;;4592805;19;19999;-80
2024/01/30 05:29:33;;;;;;;34.03;27.43;;;14.10;92.10;;;;;;4592738;19;20039;-84
2024/01/30 05:31:07;;;;;;;27.93;22.47;;;14.10;92.10;;;;;;4593537;19;20012;-84
2024/01/30 05:32:42;;;;;;;26.27;20.47;;;14.00;92.20;;;;;;4592228;19;20006;-84
2024/01/30 05:34:17;;;;;;;34.23;25.40;;;14.00;92.20;;;;;;4592874;19;20002;-84
2024/01/30 05:35:54;;;;;;;32.13;23.37;;;14.00;92.20;;;;;;4593030;19;20010;-83
2024/01/30 05:37:31;;;;;;;30.17;23.23;;;14.10;92.30;;;;;;4592880;19;20309;-85
2024/01/30 05:39:05;;;;;;;33.57;22.53;;;14.10;92.50;;;;;;4593142;19;20010;-85
2024/01/30 05:40:39;;;;;;;34.33;21.67;;;14.30;92.30;;;;;;4591868;19;20019;-84
2024/01/30 05:42:16;;;;;;;23.43;16.93;;;14.40;92.20;;;;;;4592662;19;20002;-84
2024/01/30 05:43:50;;;;;;;29.33;18.53;;;14.50;92.20;;;;;;4592002;19;20010;-86
2024/01/30 05:45:24;;;;;;;29.87;19.63;;;14.60;92.00;;;;;;4591392;19;20360;-85
2024/01/30 05:47:01;;;;;;;46.20;28.73;;;14.70;91.90;;;;;;4591563;19;20310;-86
2024/01/30 05:48:35;;;;;;;49.37;30.13;;;14.80;91.70;;;;;;4592483;19;20472;-86
2024/01/30 05:50:09;;;;;;;54.33;31.93;;;14.80;91.70;;;;;;4590625;19;20345;-86
2024/01/30 05:51:48;;;;;;;34.37;22.13;;;14.90;91.60;;;;;;4591874;19;20070;-86
2024/01/30 05:53:23;;;;;;;32.97;20.57;;;15.00;91.70;;;;;;4592899;19;20002;-88
2024/01/30 05:54:58;;;;;;;28.17;18.83;;;15.00;91.60;;;;;;4592397;19;19998;-88
2024/01/30 05:56:34;;;;;;;31.63;23.20;;;15.00;91.50;;;;;;4592018;19;20437;-87
2024/01/30 05:58:09;;;;;;;29.53;20.30;;;15.00;91.40;;;;;;4592448;19;20070;-88
2024/01/30 05:59:44;;;;;;;33.50;23.63;;;15.00;91.30;;;;;;4591461;19;20003;-86
2024/01/30 06:01:21;;;;;;;27.37;19.10;;;14.90;91.30;;;;;;4591305;19;20310;-88
2024/01/30 06:02:55;;;;;;;21.93;15.97;;;14.90;91.40;;;;;;4591031;19;20033;-83
2024/01/30 06:04:30;;;;;;;24.17;17.33;;;14.80;91.40;;;;;;4591581;19;20006;-83
2024/01/30 06:06:07;;;;;;;25.57;18.47;;;14.80;91.40;;;;;;4591044;19;20050;-82
2024/01/30 06:07:41;;;;;;;25.57;17.33;;;14.70;91.40;;;;;;4590973;19;20036;-82
2024/01/30 06:09:15;;;;;;;22.33;14.87;;;14.70;91.50;;;;;;4592783;19;20418;-82
2024/01/30 06:10:50;;;;;;;19.40;14.57;;;14.70;91.60;;;;;;4592590;19;19995;-83
2024/01/30 06:12:24;;;;;;;21.77;15.17;;;14.60;91.60;;;;;;4591370;19;20045;-82
2024/01/30 06:13:57;;;;;;;18.43;13.80;;;14.60;91.70;;;;;;4594408;19;20015;-82
2024/01/30 06:15:34;;;;;;;21.70;14.33;;;14.50;91.80;;;;;;4591777;19;20078;-83
2024/01/30 06:17:09;;;;;;;19.30;13.37;;;14.50;91.80;;;;;;4594182;19;20003;-82
2024/01/30 06:18:44;;;;;;;21.57;14.33;;;14.40;91.90;;;;;;4591470;19;20011;-79
2024/01/30 06:20:19;;;;;;;17.43;12.93;;;14.40;91.90;;;;;;4592328;19;20024;-82
2024/01/30 06:21:53;;;;;;;22.13;14.87;;;14.30;92.00;;;;;;4590459;19;19999;-84
2024/01/30 06:23:28;;;;;;;21.20;14.77;;;14.30;92.00;;;;;;4594188;19;20020;-85
2024/01/30 06:25:10;;;;;;;21.20;14.80;;;14.20;92.00;;;;;;4592512;19;20017;-86
2024/01/30 06:26:44;;;;;;;23.27;15.17;;;14.20;92.10;;;;;;4591864;19;20002;-85
2024/01/30 06:28:18;;;;;;;20.33;15.30;;;14.20;92.10;;;;;;4591287;19;20434;-84
2024/01/30 06:29:56;;;;;;;20.77;14.50;;;14.10;92.10;;;;;;4591402;19;20029;-84
2024/01/30 06:31:30;;;;;;;23.50;14.27;;;14.10;92.20;;;;;;4595512;19;20002;-84
2024/01/30 06:33:04;;;;;;;21.27;15.97;;;14.10;92.30;;;;;;4594528;19;20421;-83
2024/01/30 06:34:44;;;;;;;20.53;15.03;;;14.00;92.20;;;;;;4594033;19;20055;-83
2024/01/30 06:36:18;;;;;;;23.47;15.23;;;14.00;92.20;;;;;;4595647;19;20006;-84
2024/01/30 06:37:52;;;;;;;21.40;14.50;;;13.90;92.20;;;;;;4590262;19;20425;-84
2024/01/30 06:39:27;;;;;;;20.77;14.83;;;14.00;92.30;;;;;;4590163;19;20002;-83
2024/01/30 06:41:02;;;;;;;20.83;15.17;;;13.90;92.30;;;;;;4593103;19;20070;-87
2024/01/30 06:42:36;;;;;;;20.80;14.60;;;13.80;92.40;;;;;;4589982;19;20011;-84
2024/01/30 06:44:12;;;;;;;21.27;15.70;;;13.80;92.40;;;;;;4590331;19;20306;-84
2024/01/30 06:45:46;;;;;;;22.07;15.87;;;13.80;92.40;;;;;;4590948;19;19998;-84
2024/01/30 06:47:20;;;;;;;21.53;15.13;;;13.80;92.40;;;;;;4591004;19;20007;-88
2024/01/30 06:48:55;;;;;;;27.43;18.20;;;13.80;92.40;;;;;;4590026;19;20015;-83
2024/01/30 06:50:29;;;;;;;36.63;21.27;;;13.80;92.50;;;;;;4592216;19;20381;-85
2024/01/30 06:52:03;;;;;;;28.67;19.07;;;13.70;92.50;;;;;;4590613;19;20452;-85
2024/01/30 06:53:39;;;;;;;28.23;19.90;;;13.70;92.60;;;;;;4590883;19;20007;-82
2024/01/30 06:55:13;;;;;;;26.20;19.10;;;13.60;92.60;;;;;;4592608;19;20438;-84
2024/01/30 06:56:48;;;;;;;25.83;19.43;;;13.60;92.70;;;;;;4591089;19;20079;-83
2024/01/30 06:58:23;;;;;;;26.60;17.50;;;13.60;92.80;;;;;;4590885;19;20017;-83
2024/01/30 06:59:58;;;;;;;23.37;16.53;;;13.50;92.70;;;;;;4593609;19;20054;-84
2024/01/30 07:01:32;;;;;;;24.07;17.33;;;13.60;92.70;;;;;;4597341;19;20018;-83
2024/01/30 07:03:07;;;;;;;23.30;15.53;;;13.50;92.80;;;;;;4594490;19;20312;-83
2024/01/30 07:04:42;;;;;;;22.07;16.17;;;13.50;92.80;;;;;;4597692;19;20299;-85
2024/01/30 07:06:16;;;;;;;21.93;14.90;;;13.50;92.90;;;;;;4595647;19;20005;-85
2024/01/30 07:07:54;;;;;;;26.03;16.63;;;13.50;92.90;;;;;;4598862;19;20429;-81
2024/01/30 07:09:29;;;;;;;21.23;15.17;;;13.50;93.00;;;;;;4594468;19;20033;-86
2024/01/30 07:11:03;;;;;;;23.57;16.27;;;13.50;93.10;;;;;;4594423;19;19998;-86
2024/01/30 07:12:38;;;;;;;28.57;19.10;;;13.50;93.10;;;;;;4596936;19;20002;-85
2024/01/30 07:14:12;;;;;;;31.23;20.40;;;13.60;93.10;;;;;;4594244;19;20014;-86
2024/01/30 07:15:47;;;;;;;27.37;19.00;;;13.60;93.10;;;;;;4594039;19;20010;-86
2024/01/30 07:17:22;;;;;;;26.50;16.90;;;13.60;93.10;;;;;;4596202;19;20298;-86
2024/01/30 07:18:56;;;;;;;27.10;17.50;;;13.60;93.10;;;;;;4594471;19;20002;-85
2024/01/30 07:20:31;;;;;;;24.20;17.13;;;13.60;93.10;;;;;;4595442;19;20084;-86
2024/01/30 07:22:06;;;;;;;21.97;15.97;;;13.60;93.10;;;;;;4596143;19;20015;-85
2024/01/30 07:23:45;;;;;;;25.53;17.27;;;13.60;93.10;;;;;;4597006;19;20078;-85
2024/01/30 07:25:19;;;;;;;27.03;16.70;;;13.60;93.10;;;;;;4594100;19;20066;-83
2024/01/30 07:26:55;;;;;;;23.00;15.70;;;13.60;93.30;;;;;;4595773;19;20011;-79
2024/01/30 07:28:29;;;;;;;23.17;16.23;;;13.60;93.20;;;;;;4594875;19;19998;-88
2024/01/30 07:30:04;;;;;;;26.37;17.87;;;13.60;93.20;;;;;;4595214;19;20011;-88
2024/01/30 07:31:40;;;;;;;25.27;16.97;;;13.50;93.20;;;;;;4597119;19;20311;-88
2024/01/30 07:33:16;;;;;;;27.90;20.67;;;13.50;93.30;;;;;;4594074;19;20014;-84
2024/01/30 07:34:50;;;;;;;26.37;18.77;;;13.50;93.40;;;;;;4594103;19;20062;-87
2024/01/30 07:36:26;;;;;;;22.47;17.93;;;13.40;93.40;;;;;;4595645;19;20002;-84
2024/01/30 07:37:59;;;;;;;27.30;19.93;;;13.40;93.50;;;;;;4594887;19;20006;-84
2024/01/30 07:39:34;;;;;;;23.67;17.80;;;13.40;93.50;;;;;;4596449;19;20007;-85
2024/01/30 07:41:09;;;;;;;25.97;17.83;;;13.40;93.50;;;;;;4595112;19;20006;-84
2024/01/30 07:42:43;;;;;;;23.80;16.83;;;13.40;93.50;;;;;;4594850;19;20302;-84
2024/01/30 07:44:18;;;;;;;25.40;17.43;;;13.40;93.60;;;;;;4594510;19;20010;-86
2024/01/30 07:45:53;;;;;;;25.23;17.37;;;13.40;93.60;;;;;;4595173;19;20019;-85
2024/01/30 07:47:27;;;;;;;24.87;17.50;;;13.40;93.70;;;;;;4593715;19;20422;-85
2024/01/30 07:49:01;;;;;;;22.87;17.13;;;13.40;93.70;;;;;;4595063;19;20007;-86
2024/01/30 07:50:38;;;;;;;22.73;16.93;;;13.40;93.70;;;;;;4594956;19;20006;-85
2024/01/30 07:52:12;;;;;;;28.33;18.50;;;13.30;93.70;;;;;;4594689;19;20009;-79
2024/01/30 07:53:47;;;;;;;27.37;19.53;;;13.30;93.70;;;;;;4595721;19;20025;-85
2024/01/30 07:55:27;;;;;;;30.37;20.40;;;13.30;93.70;;;;;;4594197;19;20034;-84
2024/01/30 07:57:02;;;;;;;23.20;18.17;;;13.30;93.80;;;;;;4595454;19;20007;-84
2024/01/30 07:58:37;;;;;;;25.43;19.00;;;13.30;93.80;;;;;;4594832;19;20036;-85
2024/01/30 08:00:14;;;;;;;31.40;20.63;;;13.30;93.80;;;;;;4594804;19;20306;-84
2024/01/30 08:01:48;;;;;;;33.20;22.07;;;13.30;93.70;;;;;;4593861;19;20015;-79
2024/01/30 08:03:23;;;;;;;35.50;25.73;;;13.30;93.80;;;;;;4594993;19;20007;-90
2024/01/30 08:04:58;;;;;;;33.90;24.30;;;13.30;93.80;;;;;;4592597;19;20045;-82
2024/01/30 08:06:32;;;;;;;34.87;24.53;;;13.30;93.90;;;;;;4592658;19;20038;-83
2024/01/30 08:08:06;;;;;;;33.77;24.60;;;13.30;93.90;;;;;;4593966;19;20015;-73
2024/01/30 08:09:41;;;;;;;38.30;27.10;;;13.30;94.00;;;;;;4594235;19;20010;-77
2024/01/30 08:11:16;;;;;;;30.93;22.40;;;13.30;94.00;;;;;;4594509;19;20034;-77
2024/01/30 08:12:49;;;;;;;28.80;19.83;;;13.20;94.00;;;;;;4592768;19;20098;-74
2024/01/30 08:14:26;;;;;;;30.73;20.90;;;13.30;94.10;;;;;;4593855;19;20006;-83